Time;durP1;ratioP1;P1;durP2;ratioP2;P2;SDS_P1;SDS_P2;PMS_P1;PMS_P2;Temp;Humidity;BMP_temperature;BMP_pressure;BME280_temperature;BME280_humidity;BME280_pressure;Samples;Min_cycle;Max_cycle;Signal;HPM_P1;HPM_P2
2022/01/12 00:00:32;;;;;;;6.90;6.32;;;;;;;-1.72;65.55;95448.34;5055686;28;20197;-65
2022/01/12 00:02:59;;;;;;;7.10;6.43;;;;;;;-1.74;65.37;95452.41;5056067;28;20260;-65
2022/01/12 00:05:25;;;;;;;6.95;6.35;;;;;;;-1.77;65.94;95450.25;5056086;28;20197;-65
2022/01/12 00:07:52;;;;;;;7.25;6.65;;;;;;;-1.77;65.80;95448.34;5055569;28;20207;-65
2022/01/12 00:10:19;;;;;;;7.03;6.43;;;;;;;-1.74;65.96;95452.41;5055110;28;20201;-65
2022/01/12 00:12:46;;;;;;;6.72;6.22;;;;;;;-1.89;65.96;95460.47;5054979;28;20194;-65
2022/01/12 00:15:15;;;;;;;6.95;6.35;;;;;;;-1.89;66.10;95445.03;5054839;28;20224;-65
2022/01/12 00:17:42;;;;;;;7.40;6.80;;;;;;;-1.97;66.30;95459.06;5054803;28;20194;-65
2022/01/12 00:20:09;;;;;;;7.30;6.70;;;;;;;-2.10;66.54;95456.88;5055339;28;20197;-65
2022/01/12 00:22:39;;;;;;;6.72;6.13;;;;;;;-2.10;67.13;95460.41;5055623;28;20197;-65
2022/01/12 00:25:24;;;;;;;6.63;5.90;;;;;;;-1.98;66.63;95460.97;5054706;28;20192;-65
2022/01/12 00:33:21;;;;;;;6.68;6.18;;;;;;;-1.99;66.24;95474.78;5055111;28;20178;-65
2022/01/12 00:35:50;;;;;;;6.90;6.30;;;;;;;-1.94;66.22;95481.00;5055366;28;20305;-65
2022/01/12 00:38:18;;;;;;;6.03;5.53;;;;;;;-1.95;66.54;95487.47;5054889;28;20202;-65
2022/01/12 00:40:48;;;;;;;6.57;6.03;;;;;;;-1.98;66.09;95477.19;5055476;28;20190;-65
2022/01/12 00:43:17;;;;;;;6.70;6.10;;;;;;;-2.00;66.14;95481.22;5055405;28;20224;-65
2022/01/12 00:45:46;;;;;;;6.40;5.90;;;;;;;-1.96;66.66;95466.94;5054519;28;20202;-65
2022/01/12 00:48:13;;;;;;;6.68;6.18;;;;;;;-1.85;65.69;95480.47;5055269;28;20205;-65
2022/01/12 00:50:40;;;;;;;6.20;5.70;;;;;;;-1.86;66.11;95471.56;5055388;28;20189;-65
2022/01/12 00:53:07;;;;;;;7.38;6.78;;;;;;;-1.77;65.91;95474.59;5055145;28;20212;-65
2022/01/12 00:55:34;;;;;;;6.22;5.72;;;;;;;-1.71;65.39;95476.22;5054816;28;20509;-65
2022/01/12 00:58:01;;;;;;;6.78;6.18;;;;;;;-1.76;64.92;95473.50;5055176;28;20198;-65
2022/01/12 01:00:29;;;;;;;6.93;6.32;;;;;;;-1.90;65.68;95462.34;5053818;28;20641;-65
2022/01/12 01:02:57;;;;;;;6.70;6.20;;;;;;;-1.98;66.18;95469.09;5055099;28;20186;-65
2022/01/12 01:05:26;;;;;;;6.47;5.90;;;;;;;-2.00;65.72;95465.84;5054238;28;20209;-65
2022/01/12 01:07:53;;;;;;;6.25;5.65;;;;;;;-2.02;65.85;95468.00;5055020;28;20190;-65
2022/01/12 01:10:29;;;;;;;6.18;5.68;;;;;;;-1.88;65.14;95468.31;5053907;28;20213;-65
2022/01/12 01:12:56;;;;;;;6.40;5.90;;;;;;;-1.87;65.14;95471.84;5055060;28;20217;-65
2022/01/12 01:15:38;;;;;;;6.22;5.72;;;;;;;-1.98;65.56;95477.19;5054902;28;20210;-65
2022/01/12 01:26:19;;;;;;;6.53;6.03;;;;;;;-1.81;64.56;95468.09;5054101;28;20193;-65
2022/01/12 01:28:46;;;;;;;6.30;5.80;;;;;;;-1.85;64.61;95475.91;5055064;28;20185;-65
2022/01/12 01:31:13;;;;;;;5.70;5.20;;;;;;;-1.92;64.63;95479.91;5056991;28;20204;-65
2022/01/12 01:33:41;;;;;;;6.10;5.60;;;;;;;-1.99;64.87;95467.47;5058768;28;20213;-65
2022/01/12 01:36:08;;;;;;;6.20;5.60;;;;;;;-1.98;65.43;95476.38;5058818;28;20217;-65
2022/01/12 01:38:35;;;;;;;6.35;5.75;;;;;;;-1.91;64.51;95468.84;5058775;28;20193;-65
2022/01/12 01:41:02;;;;;;;5.93;5.43;;;;;;;-1.89;64.46;95472.09;5058374;28;20602;-65
2022/01/12 01:43:43;;;;;;;6.53;5.95;;;;;;;-1.84;64.38;95471.31;5058430;28;20186;-65
2022/01/12 01:54:25;;;;;;;5.55;5.13;;;;;;;-1.71;63.59;95473.50;5057797;28;20202;-65
2022/01/12 01:56:52;;;;;;;5.82;5.32;;;;;;;-1.62;63.38;95484.63;5058297;28;20216;-65
2022/01/12 01:59:19;;;;;;;5.70;5.30;;;;;;;-1.70;63.25;95481.38;5057753;28;20226;-65
2022/01/12 02:01:46;;;;;;;5.22;4.82;;;;;;;-1.81;63.61;95487.81;5058385;28;20192;-65
2022/01/12 02:04:15;;;;;;;5.25;4.85;;;;;;;-1.85;63.80;95488.59;5057110;28;20213;-65
2022/01/12 02:06:42;;;;;;;6.15;5.65;;;;;;;-1.89;63.96;95491.00;5057451;28;20251;-65
2022/01/12 02:09:09;;;;;;;5.88;5.38;;;;;;;-1.97;63.87;95484.22;5057458;28;20202;-65
2022/01/12 02:11:35;;;;;;;6.18;5.68;;;;;;;-1.90;63.93;95488.59;5057136;28;20219;-65
2022/01/12 02:14:02;;;;;;;6.07;5.57;;;;;;;-1.81;63.81;95487.81;5058300;28;20190;-65
2022/01/12 02:16:36;;;;;;;6.18;5.60;;;;;;;-1.83;63.28;95499.97;5057172;28;20224;-65
2022/01/12 02:19:14;;;;;;;6.20;5.60;;;;;;;-1.84;63.34;95503.75;5057197;28;20642;-65
2022/01/12 02:35:46;;;;;;;5.70;5.20;;;;;;;-1.87;62.46;95510.50;5057154;28;20297;-65
2022/01/12 02:40:59;;;;;;;6.30;5.72;;;;;;;-1.97;62.86;95516.66;5056307;28;20178;-65
2022/01/12 02:43:42;;;;;;;6.70;6.20;;;;;;;-1.94;62.73;95526.16;5056363;28;20198;-65
2022/01/12 02:53:38;;;;;;;5.80;5.40;;;;;;;-2.15;63.29;95538.72;5056176;28;20205;-65
2022/01/12 02:54:24;;;;;;;5.57;5.07;;;;;;;-2.09;62.89;95536.88;5056901;28;20205;-65
2022/01/12 02:56:51;;;;;;;5.22;4.82;;;;;;;-2.17;62.95;95538.19;5056655;28;20320;-65
2022/01/12 02:59:18;;;;;;;5.50;5.00;;;;;;;-2.24;63.06;95532.19;5057196;28;20186;-65
2022/01/12 03:02:18;;;;;;;6.15;5.57;;;;;;;-2.23;63.39;95542.75;5056768;28;20197;-65
2022/01/12 03:04:57;;;;;;;6.20;5.60;;;;;;;-2.02;63.08;95548.28;5055897;28;20229;-65
2022/01/12 03:07:24;;;;;;;6.20;5.70;;;;;;;-2.02;63.06;95543.69;5055951;28;20610;-65
2022/01/12 03:09:52;;;;;;;6.10;5.60;;;;;;;-2.07;62.55;95553.63;5057271;28;20185;-65
2022/01/12 03:12:21;;;;;;;5.43;5.00;;;;;;;-2.16;62.84;95556.03;5056722;28;20178;-65
2022/01/12 03:14:48;;;;;;;6.22;5.72;;;;;;;-2.08;62.71;95554.72;5055846;28;20259;-65
2022/01/12 03:17:15;;;;;;;5.95;5.45;;;;;;;-2.08;62.96;95552.00;5056046;28;20205;-65
2022/01/12 03:19:43;;;;;;;5.97;5.50;;;;;;;-2.25;62.86;95558.41;5055663;28;20618;-65
2022/01/12 03:22:09;;;;;;;6.30;5.80;;;;;;;-2.28;62.95;95563.53;5055654;28;20626;-65
2022/01/12 03:24:36;;;;;;;6.43;5.90;;;;;;;-2.17;62.73;95557.09;5055811;28;20630;-65
2022/01/12 03:27:06;;;;;;;6.22;5.72;;;;;;;-2.24;62.73;95570.03;5056405;28;20238;-65
2022/01/12 03:29:33;;;;;;;6.90;6.30;;;;;;;-2.16;62.85;95564.13;5056699;28;20186;-65
2022/01/12 03:32:01;;;;;;;7.05;6.47;;;;;;;-2.15;62.46;95571.16;5056277;28;20296;-65
2022/01/12 03:34:31;;;;;;;7.07;6.47;;;;;;;-2.01;62.41;95569.63;5055502;28;20292;-65
2022/01/12 04:09:59;;;;;;;8.38;7.57;;;;;;;-2.00;61.76;95628.03;5055616;28;20174;-65
2022/01/12 04:12:28;;;;;;;6.85;6.25;;;;;;;-2.00;61.39;95619.09;5055868;28;20617;-66
2022/01/12 04:15:15;;;;;;;7.50;6.90;;;;;;;-1.99;61.72;95626.16;5056556;28;20201;-66
2022/01/12 04:18:02;;;;;;;7.55;6.95;;;;;;;-1.97;61.73;95621.28;5055624;28;20210;-66
2022/01/12 04:20:50;;;;;;;9.13;8.23;;;;;;;-1.85;61.76;95629.19;5055579;28;20667;-66
2022/01/12 04:23:39;;;;;;;8.43;7.68;;;;;;;-1.73;61.25;95638.75;5055579;28;20193;-66
2022/01/12 04:26:26;;;;;;;9.45;8.55;;;;;;;-1.67;60.54;95644.19;5055087;28;20201;-65
2022/01/12 04:29:14;;;;;;;11.35;10.35;;;;;;;-1.57;60.87;95644.25;5055425;28;20190;-65
2022/01/12 04:32:01;;;;;;;9.05;8.27;;;;;;;-1.71;60.57;95652.84;5055329;28;20196;-65
2022/01/12 04:34:49;;;;;;;9.82;9.02;;;;;;;-1.67;60.67;95649.59;5055375;28;20210;-65
2022/01/12 04:37:35;;;;;;;8.80;8.00;;;;;;;-1.56;60.37;95657.53;5055243;28;20298;-65
2022/01/12 04:40:24;;;;;;;10.55;9.55;;;;;;;-1.47;60.47;95647.81;5055143;28;20649;-65
2022/01/12 04:43:11;;;;;;;10.55;9.55;;;;;;;-1.61;60.37;95651.25;5055777;28;20225;-65
2022/01/12 04:46:22;;;;;;;9.88;9.00;;;;;;;-1.56;60.29;95654.81;5055298;28;20615;-66
2022/01/12 04:52:09;;;;;;;9.10;8.30;;;;;;;-1.50;60.51;95658.34;5055035;28;20197;-65
2022/01/12 04:54:56;;;;;;;9.88;9.02;;;;;;;-1.42;59.87;95667.84;5055003;28;20197;-66
2022/01/12 04:57:44;;;;;;;8.13;7.43;;;;;;;-1.50;59.84;95666.47;5054971;28;20210;-66
2022/01/12 05:00:32;;;;;;;7.43;6.82;;;;;;;-1.47;59.99;95676.78;5055174;28;20220;-66
2022/01/12 05:06:40;;;;;;;7.40;6.80;;;;;;;-1.60;60.22;95669.91;5045977;28;20197;-65
2022/01/12 05:09:43;;;;;;;7.70;7.03;;;;;;;-1.56;60.36;95686.44;5055057;28;20287;-65
2022/01/12 05:12:51;;;;;;;8.30;7.60;;;;;;;-1.51;59.82;95686.50;5054920;28;20178;-65
2022/01/12 05:15:39;;;;;;;7.65;7.05;;;;;;;-1.54;60.03;95693.22;5054672;28;20257;-65
2022/01/12 05:18:25;;;;;;;8.10;7.40;;;;;;;-1.52;59.59;95699.22;5055217;28;20192;-65
2022/01/12 05:21:11;;;;;;;10.63;9.73;;;;;;;-1.41;60.13;95699.28;5055113;28;20188;-64
2022/01/12 05:24:00;;;;;;;10.20;9.30;;;;;;;-1.38;60.20;95712.25;5055013;28;20193;-65
2022/01/12 05:26:45;;;;;;;8.93;8.13;;;;;;;-1.38;58.96;95713.09;5054812;28;20575;-65
2022/01/12 05:29:31;;;;;;;8.57;7.88;;;;;;;-1.42;59.11;95711.16;5054972;28;20656;-65
2022/01/12 05:32:18;;;;;;;8.57;7.88;;;;;;;-1.50;59.13;95721.38;5055306;28;20193;-64
2022/01/12 05:35:06;;;;;;;7.15;6.55;;;;;;;-1.54;58.81;95723.00;5055461;28;20189;-64
2022/01/12 05:37:51;;;;;;;8.25;7.55;;;;;;;-1.51;59.08;95721.66;5054819;28;20542;-65
2022/01/12 05:40:37;;;;;;;10.68;9.88;;;;;;;-1.44;59.24;95721.44;5054620;28;20250;-68
2022/01/12 05:43:26;;;;;;;13.93;12.73;;;;;;;-1.40;59.28;95727.97;5054760;28;20253;-65
2022/01/12 05:45:59;;;;;;;9.25;8.43;;;;;;;-1.41;58.94;95735.25;5054910;28;20181;-65
2022/01/12 05:51:12;;;;;;;10.32;9.43;;;;;;;-1.36;58.78;95726.34;5054535;28;20178;-65
2022/01/12 05:53:38;;;;;;;7.47;6.88;;;;;;;-1.39;57.93;95733.09;5054661;28;20208;-65
2022/01/12 05:56:06;;;;;;;6.88;6.28;;;;;;;-1.37;58.45;95746.38;5053792;28;20208;-65
2022/01/12 05:58:32;;;;;;;7.32;6.57;;;;;;;-1.39;57.90;95738.50;5054609;28;20186;-65
2022/01/12 06:00:59;;;;;;;7.38;6.78;;;;;;;-1.46;58.70;95748.75;5054688;28;20200;-64
2022/01/12 06:03:28;;;;;;;7.35;6.63;;;;;;;-1.41;57.79;95751.50;5054658;28;20201;-64
2022/01/12 06:05:54;;;;;;;7.65;7.05;;;;;;;-1.43;57.92;95745.53;5054823;28;20186;-64
2022/01/12 06:08:21;;;;;;;7.07;6.57;;;;;;;-1.48;58.05;95761.72;5054975;28;20186;-65
2022/01/12 06:10:48;;;;;;;6.45;5.88;;;;;;;-1.55;58.05;95759.25;5054755;28;20196;-65
2022/01/12 06:13:15;;;;;;;6.50;6.00;;;;;;;-1.60;57.90;95766.50;5054324;28;20186;-65
2022/01/12 06:15:41;;;;;;;6.68;6.07;;;;;;;-1.60;58.34;95770.00;5054250;28;20209;-65
2022/01/12 06:18:08;;;;;;;7.00;6.40;;;;;;;-1.66;58.45;95772.97;5057983;28;20217;-65
2022/01/12 06:20:37;;;;;;;6.70;6.10;;;;;;;-1.85;58.71;95777.91;5058821;28;20192;-65
2022/01/12 06:23:03;;;;;;;7.20;6.50;;;;;;;-1.76;58.57;95779.09;5058932;28;20259;-65
2022/01/12 06:25:30;;;;;;;7.05;6.35;;;;;;;-1.71;58.90;95779.13;5057061;28;20197;-65
2022/01/12 06:28:09;;;;;;;7.55;6.90;;;;;;;-1.63;58.90;95784.06;5056561;28;20233;-64
2022/01/12 06:33:21;;;;;;;7.40;6.80;;;;;;;-1.51;58.59;95792.81;5056937;28;20202;-65
2022/01/12 06:35:49;;;;;;;8.05;7.35;;;;;;;-1.54;58.69;95797.94;5057158;28;20198;-65
2022/01/12 06:38:16;;;;;;;8.40;7.60;;;;;;;-1.49;58.67;95797.97;5057939;28;20267;-65
2022/01/12 06:40:44;;;;;;;7.85;7.15;;;;;;;-1.41;58.77;95802.91;5057469;28;20174;-65
2022/01/12 06:43:11;;;;;;;8.38;7.50;;;;;;;-1.42;58.19;95806.66;5057674;28;20190;-65
2022/01/12 06:45:39;;;;;;;8.10;7.40;;;;;;;-1.49;58.45;95812.34;5056670;28;20205;-65
2022/01/12 06:48:06;;;;;;;6.82;6.22;;;;;;;-1.44;58.08;95811.53;5057743;28;20549;-66
2022/01/12 06:50:33;;;;;;;6.85;6.30;;;;;;;-1.36;58.34;95818.38;5057062;28;20202;-65
2022/01/12 06:53:01;;;;;;;7.20;6.60;;;;;;;-1.33;57.87;95818.66;5057102;28;20192;-66
2022/01/12 06:55:28;;;;;;;8.13;7.40;;;;;;;-1.37;57.74;95822.16;5056483;28;20201;-65
2022/01/12 06:57:55;;;;;;;7.85;7.20;;;;;;;-1.53;57.87;95823.91;5057167;28;20206;-65
2022/01/12 07:00:22;;;;;;;8.65;7.95;;;;;;;-1.55;58.05;95820.66;5057024;28;20201;-65
2022/01/12 07:02:49;;;;;;;8.45;7.75;;;;;;;-1.54;58.09;95820.38;5056569;28;20213;-66
2022/01/12 07:05:15;;;;;;;8.40;7.70;;;;;;;-1.49;57.69;95835.84;5057475;28;20276;-65
2022/01/12 07:07:42;;;;;;;6.95;6.45;;;;;;;-1.58;57.63;95829.28;5057385;28;20186;-66
2022/01/12 07:10:11;;;;;;;11.60;10.50;;;;;;;-1.58;58.11;95832.81;5057050;28;20188;-66
2022/01/12 07:12:37;;;;;;;10.65;9.75;;;;;;;-1.55;58.15;95835.00;5056378;28;20198;-65
2022/01/12 07:15:05;;;;;;;11.45;10.35;;;;;;;-1.45;57.63;95834.28;5056649;28;20198;-66
2022/01/12 07:17:32;;;;;;;9.50;8.65;;;;;;;-1.47;57.45;95836.41;5057080;28;20232;-65
2022/01/12 07:19:59;;;;;;;7.30;6.70;;;;;;;-1.68;57.02;95848.13;5056590;28;20204;-66
2022/01/12 07:22:26;;;;;;;6.43;5.93;;;;;;;-2.02;57.87;95842.94;5056392;28;20193;-67
2022/01/12 07:24:52;;;;;;;8.05;7.25;;;;;;;-1.93;58.31;95844.09;5056335;28;20198;-67
2022/01/12 07:27:20;;;;;;;9.27;8.32;;;;;;;-1.91;58.30;95849.25;5054696;28;20240;-66
2022/01/12 07:29:47;;;;;;;10.48;9.15;;;;;;;-1.98;58.67;95861.09;5056706;28;20196;-66
2022/01/12 07:32:14;;;;;;;8.93;8.02;;;;;;;-1.91;58.01;95858.19;5056061;28;20185;-65
2022/01/12 07:34:41;;;;;;;9.80;8.80;;;;;;;-1.94;58.46;95862.22;5055801;28;20193;-64
2022/01/12 07:37:08;;;;;;;7.38;6.68;;;;;;;-1.94;58.34;95859.50;5060468;28;20212;-64
2022/01/12 07:39:34;;;;;;;8.32;7.60;;;;;;;-1.85;58.45;95864.44;5075144;28;20185;-64
2022/01/12 07:42:03;;;;;;;6.85;6.22;;;;;;;-1.75;57.56;95859.97;5076077;28;20203;-64
2022/01/12 07:44:31;;;;;;;6.45;5.93;;;;;;;-1.77;57.53;95861.31;5076496;28;20223;-64
2022/01/12 07:46:58;;;;;;;6.28;5.68;;;;;;;-1.79;57.42;95869.66;5075534;28;20193;-64
2022/01/12 07:49:25;;;;;;;8.07;7.38;;;;;;;-1.68;57.51;95875.16;5076304;28;20292;-65
2022/01/12 07:51:52;;;;;;;10.75;9.60;;;;;;;-1.51;57.66;95868.56;5077119;28;20192;-64
2022/01/12 07:54:18;;;;;;;9.77;8.88;;;;;;;-1.35;57.24;95868.69;5075799;28;20204;-64
2022/01/12 07:56:45;;;;;;;10.45;9.55;;;;;;;-1.39;56.95;95875.72;5075488;28;20193;-64
2022/01/12 07:59:12;;;;;;;10.38;9.40;;;;;;;-1.35;57.21;95879.53;5076111;28;20192;-64
2022/01/12 08:01:40;;;;;;;10.23;9.23;;;;;;;-1.38;55.61;95882.75;5075191;28;20201;-64
2022/01/12 08:04:07;;;;;;;9.52;8.48;;;;;;;-1.39;55.65;95887.34;5075191;28;20515;-64
2022/01/12 08:06:34;;;;;;;7.78;7.15;;;;;;;-1.42;55.41;95890.56;5076035;28;20193;-64
2022/01/12 08:09:00;;;;;;;7.40;6.80;;;;;;;-1.41;55.88;95896.81;5074773;28;20201;-64
2022/01/12 08:11:28;;;;;;;6.57;6.07;;;;;;;-1.54;55.49;95890.72;5074979;28;20200;-64
2022/01/12 08:13:55;;;;;;;7.22;6.63;;;;;;;-1.57;56.57;95895.84;5075835;28;20223;-64
2022/01/12 08:16:22;;;;;;;8.57;7.88;;;;;;;-1.55;56.45;95899.94;5075961;28;20189;-64
2022/01/12 08:18:50;;;;;;;11.60;9.38;;;;;;;-1.33;56.11;95905.28;5075569;28;20212;-64
2022/01/12 08:21:17;;;;;;;7.70;7.00;;;;;;;-1.39;55.39;95909.00;5074789;28;20522;-64
2022/01/12 08:23:44;;;;;;;7.97;7.32;;;;;;;-1.50;55.46;95910.78;5075182;28;20201;-64
2022/01/12 08:26:11;;;;;;;7.60;7.00;;;;;;;-1.62;55.88;95899.31;5074477;28;20207;-65
2022/01/12 08:28:37;;;;;;;9.48;8.65;;;;;;;-1.62;55.15;95907.44;5074982;28;20571;-66
2022/01/12 08:31:04;;;;;;;8.43;7.63;;;;;;;-1.71;56.11;95911.66;5075660;28;20200;-65
2022/01/12 08:33:32;;;;;;;7.30;6.60;;;;;;;-1.66;55.94;95917.13;5074594;28;20201;-65
2022/01/12 08:36:00;;;;;;;8.73;7.70;;;;;;;-1.57;56.01;95917.47;5074852;28;20193;-65
2022/01/12 08:38:26;;;;;;;6.95;6.28;;;;;;;-1.74;55.81;95923.00;5074721;28;20216;-65
2022/01/12 08:40:53;;;;;;;7.45;6.05;;;;;;;-1.90;56.68;95923.91;5074545;28;20193;-65
2022/01/12 08:43:20;;;;;;;6.50;5.90;;;;;;;-2.02;56.81;95927.56;5074218;28;20199;-65
2022/01/12 08:45:47;;;;;;;9.10;7.68;;;;;;;-1.78;56.59;95929.97;5075256;28;20506;-65
2022/01/12 08:48:14;;;;;;;8.57;7.70;;;;;;;-1.61;56.00;95924.47;5075477;28;20231;-65
2022/01/12 08:50:41;;;;;;;7.15;6.45;;;;;;;-1.52;55.36;95920.25;5075362;28;20195;-65
2022/01/12 08:53:09;;;;;;;8.35;6.78;;;;;;;-1.44;55.48;95921.69;5074444;28;20201;-65
2022/01/12 08:55:36;;;;;;;8.10;7.40;;;;;;;-1.49;55.29;95927.84;5074387;28;20215;-66
2022/01/12 08:58:03;;;;;;;9.27;8.48;;;;;;;-1.42;54.93;95920.31;5075630;28;20213;-65
2022/01/12 09:00:30;;;;;;;9.13;8.30;;;;;;;-1.32;55.06;95922.31;5075287;28;20186;-66
2022/01/12 09:02:57;;;;;;;9.40;8.40;;;;;;;-1.32;54.32;95925.03;5075215;28;20185;-66
2022/01/12 09:05:24;;;;;;;18.45;14.18;;;;;;;-1.39;54.68;95929.84;5074124;28;20218;-64
2022/01/12 09:07:52;;;;;;;12.57;11.27;;;;;;;-1.47;55.10;95931.13;5075342;28;20217;-64
2022/01/12 09:10:21;;;;;;;17.40;13.00;;;;;;;-1.48;55.08;95933.00;5075126;28;20228;-66
2022/01/12 09:12:47;;;;;;;8.63;7.82;;;;;;;-1.45;55.23;95923.56;5075290;28;20196;-67
2022/01/12 09:15:15;;;;;;;11.40;10.40;;;;;;;-1.35;55.28;95925.53;5074875;28;20236;-64
2022/01/12 09:17:42;;;;;;;5.65;5.07;;;;;;;-1.37;54.30;95919.56;5073782;28;20652;-64
2022/01/12 09:20:10;;;;;;;7.07;6.55;;;;;;;-1.65;55.13;95923.34;5074085;28;20197;-65
2022/01/12 09:22:37;;;;;;;5.38;4.97;;;;;;;-1.78;55.63;95916.44;5075047;28;20169;-65
2022/01/12 09:25:06;;;;;;;7.78;7.05;;;;;;;-1.60;55.34;95913.38;5075204;28;20258;-64
2022/01/12 09:27:34;;;;;;;8.50;7.70;;;;;;;-1.36;55.24;95916.59;5074923;28;20233;-65
2022/01/12 09:30:01;;;;;;;6.90;6.32;;;;;;;-1.30;54.41;95917.47;5074363;28;20209;-65
2022/01/12 09:32:27;;;;;;;7.55;6.95;;;;;;;-1.33;54.24;95913.38;5074383;28;20189;-64
2022/01/12 09:34:54;;;;;;;7.68;7.07;;;;;;;-1.37;54.44;95906.03;5074990;28;20198;-64
2022/01/12 09:37:22;;;;;;;8.93;8.02;;;;;;;-1.30;54.74;95914.78;5073934;28;20216;-65
2022/01/12 09:39:49;;;;;;;6.63;6.00;;;;;;;-1.18;54.26;95909.19;5075217;28;20207;-64
2022/01/12 09:42:16;;;;;;;10.95;10.02;;;;;;;-0.99;55.07;95916.63;5074120;28;20193;-64
2022/01/12 09:44:46;;;;;;;10.68;9.70;;;;;;;-0.62;54.05;95912.28;5074869;28;20189;-64
2022/01/12 09:47:13;;;;;;;7.93;5.82;;;;;;;-0.58;52.95;95911.53;5073528;28;20205;-64
2022/01/12 09:49:43;;;;;;;5.38;4.88;;;;;;;-0.64;52.43;95920.69;5073459;28;20208;-64
2022/01/12 09:52:10;;;;;;;5.22;4.63;;;;;;;-0.73;52.83;95905.97;5076477;28;20675;-63
2022/01/12 09:54:37;;;;;;;5.72;5.22;;;;;;;-0.97;52.49;95903.66;5078526;28;20181;-64
2022/01/12 09:57:04;;;;;;;6.50;5.75;;;;;;;-0.86;53.51;95907.25;5078599;28;20217;-64
2022/01/12 09:59:32;;;;;;;8.90;8.20;;;;;;;-0.82;53.64;95916.50;5079225;28;20193;-64
2022/01/12 10:02:00;;;;;;;7.13;6.53;;;;;;;-0.72;53.60;95913.06;5078428;28;20213;-64
2022/01/12 10:04:29;;;;;;;4.85;4.30;;;;;;;-0.64;52.82;95906.31;5078510;28;20255;-65
2022/01/12 10:06:58;;;;;;;9.13;5.68;;;;;;;-0.67;52.97;95915.78;5077452;28;20671;-64
2022/01/12 10:09:26;;;;;;;5.40;4.90;;;;;;;-0.75;53.02;95914.38;5078165;28;20204;-64
2022/01/12 10:11:54;;;;;;;7.45;6.65;;;;;;;-0.66;53.32;95914.69;5078295;28;20213;-64
2022/01/12 10:14:22;;;;;;;11.85;8.93;;;;;;;-0.53;53.38;95910.72;5078466;28;20224;-64
2022/01/12 10:16:54;;;;;;;6.32;5.63;;;;;;;-0.64;53.45;95914.44;5077670;28;20652;-63
2022/01/12 10:19:32;;;;;;;9.65;7.15;;;;;;;-0.57;53.66;95910.44;5077326;28;20579;-64
2022/01/12 10:22:01;;;;;;;5.60;5.10;;;;;;;-0.95;53.60;95911.53;5078577;28;20250;-64
2022/01/12 10:24:29;;;;;;;8.50;6.90;;;;;;;-0.77;54.68;95915.72;5077232;28;20196;-64
2022/01/12 10:26:56;;;;;;;9.70;7.53;;;;;;;-0.70;54.05;95916.31;5077895;28;20243;-64
2022/01/12 10:29:25;;;;;;;6.63;6.03;;;;;;;-0.54;53.79;95911.81;5077962;28;20189;-64
2022/01/12 10:31:54;;;;;;;8.18;7.38;;;;;;;-0.32;53.21;95914.38;5077544;28;20196;-66
2022/01/12 10:34:23;;;;;;;7.18;6.47;;;;;;;-0.19;52.55;95904.94;5078612;28;20532;-65
2022/01/12 10:36:53;;;;;;;6.07;5.47;;;;;;;0.05;52.33;95906.13;5076918;28;20193;-66
2022/01/12 10:39:21;;;;;;;5.30;4.88;;;;;;;0.16;51.97;95905.06;5076702;28;20249;-66
2022/01/12 10:42:00;;;;;;;4.32;4.03;;;;;;;-0.01;51.18;95910.69;5077338;28;20240;-66
2022/01/12 10:44:30;;;;;;;5.20;4.70;;;;;;;-0.02;51.87;95908.25;5077143;28;20621;-66
2022/01/12 10:47:14;;;;;;;4.40;4.00;;;;;;;-0.05;51.73;95904.16;5077595;28;20189;-66
2022/01/12 10:49:42;;;;;;;5.22;4.72;;;;;;;-0.03;51.90;95904.75;5076636;28;20258;-66
2022/01/12 10:52:12;;;;;;;6.63;6.05;;;;;;;-0.08;51.43;95909.31;5076672;28;20204;-65
2022/01/12 10:54:44;;;;;;;7.53;6.82;;;;;;;-0.19;51.55;95915.78;5077557;28;20199;-65
2022/01/12 10:57:18;;;;;;;7.00;6.40;;;;;;;-0.26;52.78;95911.41;5076408;28;20197;-65
2022/01/12 10:59:48;;;;;;;5.88;5.43;;;;;;;-0.21;52.24;95916.06;5076056;28;20652;-66
2022/01/12 11:02:15;;;;;;;7.30;5.80;;;;;;;-0.18;51.92;95907.41;5076921;28;20612;-66
2022/01/12 11:04:42;;;;;;;10.20;9.20;;;;;;;-0.24;52.37;95900.31;5077513;28;20213;-66
2022/01/12 11:07:11;;;;;;;9.60;8.60;;;;;;;-0.21;52.68;95898.97;5078454;28;20233;-64
2022/01/12 11:09:38;;;;;;;9.40;8.52;;;;;;;-0.27;52.08;95906.25;5077132;28;20204;-64
2022/01/12 11:12:06;;;;;;;7.43;6.82;;;;;;;-0.35;52.22;95904.88;5077210;28;20225;-64
2022/01/12 11:14:33;;;;;;;6.57;5.97;;;;;;;-0.30;51.77;95896.75;5076765;28;20185;-65
2022/01/12 11:17:00;;;;;;;4.75;4.35;;;;;;;-0.22;51.52;95905.44;5075833;28;20236;-65
2022/01/12 11:19:27;;;;;;;5.88;4.88;;;;;;;-0.24;51.33;95908.44;5075596;28;20223;-65
2022/01/12 11:22:02;;;;;;;4.70;4.30;;;;;;;-0.37;51.98;95909.72;5075784;28;20193;-65
2022/01/12 11:24:34;;;;;;;4.88;4.38;;;;;;;-0.37;52.01;95908.91;5076000;28;20189;-65
2022/01/12 11:27:03;;;;;;;4.70;4.30;;;;;;;-0.42;51.81;95908.88;5076522;28;20283;-65
2022/01/12 11:29:34;;;;;;;9.52;8.73;;;;;;;-0.56;52.59;95911.25;5076381;28;20442;-65
2022/01/12 11:32:05;;;;;;;14.18;12.77;;;;;;;-0.45;52.87;95914.84;5076323;28;20583;-65
2022/01/12 11:34:32;;;;;;;10.93;9.95;;;;;;;-0.37;52.36;95911.63;5076668;28;20287;-65
2022/01/12 11:36:59;;;;;;;11.68;10.57;;;;;;;-0.35;52.47;95910.28;5076438;28;20602;-65
2022/01/12 11:39:33;;;;;;;9.40;8.50;;;;;;;-0.26;52.19;95916.81;5076199;28;20205;-65
2022/01/12 11:42:00;;;;;;;9.90;9.00;;;;;;;-0.22;52.23;95914.41;5076986;28;20185;-65
2022/01/12 11:44:29;;;;;;;6.80;6.20;;;;;;;-0.16;51.73;95912.53;5076466;28;20185;-65
2022/01/12 11:46:57;;;;;;;11.82;10.73;;;;;;;-0.12;51.73;95922.59;5075740;28;20201;-65
2022/01/12 11:49:29;;;;;;;16.83;15.25;;;;;;;-0.11;51.32;95918.81;5076382;28;20200;-65
2022/01/12 11:51:56;;;;;;;15.20;13.80;;;;;;;-0.08;51.63;95926.41;5076143;28;20205;-65
2022/01/12 11:54:30;;;;;;;13.40;11.65;;;;;;;-0.10;51.47;95935.91;5076328;28;20185;-65
2022/01/12 11:57:00;;;;;;;13.00;11.73;;;;;;;-0.13;51.46;95929.09;5075096;28;20203;-65
2022/01/12 11:59:28;;;;;;;13.73;12.43;;;;;;;-0.14;51.97;95934.78;5075219;28;20223;-64
2022/01/12 12:02:07;;;;;;;14.38;12.98;;;;;;;-0.05;51.50;95925.88;5076221;28;20196;-64
2022/01/12 12:04:34;;;;;;;8.50;7.78;;;;;;;-0.01;52.02;95928.88;5075275;28;20200;-64
2022/01/12 12:07:07;;;;;;;9.27;8.38;;;;;;;0.03;51.22;95934.59;5075998;28;20192;-64
2022/01/12 12:09:38;;;;;;;6.13;5.63;;;;;;;0.02;51.65;95928.34;5075852;28;20193;-64
2022/01/12 12:12:13;;;;;;;4.82;4.43;;;;;;;0.07;51.59;95922.94;5074987;28;20628;-64
2022/01/12 12:14:40;;;;;;;11.38;10.20;;;;;;;0.16;51.29;95936.81;5074980;28;20204;-65
2022/01/12 12:17:08;;;;;;;10.18;9.27;;;;;;;0.15;50.27;95937.91;5074931;28;20197;-64
2022/01/12 12:19:37;;;;;;;13.57;12.38;;;;;;;0.10;50.73;95938.69;5074830;28;20220;-64
2022/01/12 12:22:11;;;;;;;14.77;13.38;;;;;;;0.09;50.85;95930.81;5075573;28;20181;-65
2022/01/12 12:24:38;;;;;;;8.35;7.55;;;;;;;0.06;50.48;95932.16;5074901;28;20203;-64
2022/01/12 12:27:06;;;;;;;7.50;6.80;;;;;;;0.10;50.64;95937.88;5074416;28;20244;-64
2022/01/12 12:29:34;;;;;;;6.15;5.65;;;;;;;0.12;50.68;95930.28;5075381;28;20207;-65
2022/01/12 12:32:02;;;;;;;5.00;4.50;;;;;;;0.14;50.31;95928.94;5074853;28;20193;-64
2022/01/12 12:34:30;;;;;;;6.90;6.25;;;;;;;0.24;50.25;95920.81;5075839;28;20185;-65
2022/01/12 12:37:00;;;;;;;10.32;9.35;;;;;;;0.29;50.05;95928.19;5074959;28;20243;-65
2022/01/12 12:39:30;;;;;;;13.73;12.50;;;;;;;0.30;49.90;95927.09;5074131;28;20255;-65
2022/01/12 12:41:57;;;;;;;7.85;7.25;;;;;;;0.30;49.41;95924.38;5075657;28;20217;-66
2022/01/12 12:44:27;;;;;;;11.77;10.68;;;;;;;0.23;49.67;95921.09;5075110;28;20201;-65
2022/01/12 12:47:08;;;;;;;22.10;19.95;;;;;;;0.20;50.00;95927.88;5075152;28;20197;-65
2022/01/12 12:49:48;;;;;;;18.60;16.90;;;;;;;0.19;50.43;95928.16;5075536;28;20567;-65
2022/01/12 12:52:23;;;;;;;13.55;12.40;;;;;;;0.10;50.42;95918.88;5075424;28;20188;-65
2022/01/12 12:54:50;;;;;;;11.98;10.77;;;;;;;0.13;49.88;95926.50;5075048;28;20196;-65
2022/01/12 12:57:21;;;;;;;13.70;12.40;;;;;;;0.16;50.17;95924.06;5074386;28;20197;-65
2022/01/12 12:59:48;;;;;;;13.05;11.82;;;;;;;0.20;49.24;95925.16;5075734;28;20216;-65
2022/01/12 13:02:17;;;;;;;7.00;6.40;;;;;;;0.27;49.02;95924.09;5075435;28;20193;-66
2022/01/12 13:04:44;;;;;;;11.68;10.68;;;;;;;0.33;49.00;95926.56;5074324;28;20197;-66
2022/01/12 13:07:17;;;;;;;17.33;15.70;;;;;;;0.42;49.19;95924.94;5074977;28;20199;-66
2022/01/12 13:09:44;;;;;;;11.05;10.05;;;;;;;0.38;48.55;95928.47;5075225;28;20211;-66
2022/01/12 13:12:11;;;;;;;9.95;9.05;;;;;;;0.41;48.69;95922.50;5074955;28;20196;-66
2022/01/12 13:14:45;;;;;;;12.27;11.18;;;;;;;0.47;48.30;95921.41;5075071;28;20212;-66
2022/01/12 13:17:14;;;;;;;8.27;7.38;;;;;;;0.50;48.18;95929.03;5074590;28;20257;-66